sensor_id;sensor_type;location;lat;lon;timestamp;temperature;humidity
21672;DHT22;10997;52.242;8.168;2023-09-12T00:00:40;19.80;99.90
21672;DHT22;10997;52.242;8.168;2023-09-12T00:05:41;19.80;99.90
21672;DHT22;10997;52.242;8.168;2023-09-12T00:10:42;19.60;99.90
21672;DHT22;10997;52.242;8.168;2023-09-12T00:15:42;19.60;99.90
21672;DHT22;10997;52.242;8.168;2023-09-12T00:20:43;19.60;99.90
21672;DHT22;10997;52.242;8.168;2023-09-12T00:25:43;19.70;99.90
21672;DHT22;10997;52.242;8.168;2023-09-12T00:30:44;19.40;99.90
21672;DHT22;10997;52.242;8.168;2023-09-12T00:35:45;19.30;99.90
21672;DHT22;10997;52.242;8.168;2023-09-12T00:40:45;19.30;99.90
21672;DHT22;10997;52.242;8.168;2023-09-12T00:45:46;19.30;99.90
21672;DHT22;10997;52.242;8.168;2023-09-12T00:50:47;19.20;99.90
21672;DHT22;10997;52.242;8.168;2023-09-12T00:55:56;19.20;99.90
21672;DHT22;10997;52.242;8.168;2023-09-12T01:00:57;19.30;99.90
21672;DHT22;10997;52.242;8.168;2023-09-12T01:05:59;19.30;99.90
21672;DHT22;10997;52.242;8.168;2023-09-12T01:11:00;19.40;99.90
21672;DHT22;10997;52.242;8.168;2023-09-12T01:16:01;19.40;99.90
21672;DHT22;10997;52.242;8.168;2023-09-12T01:21:14;19.20;99.90
21672;DHT22;10997;52.242;8.168;2023-09-12T01:31:49;19.20;99.90
21672;DHT22;10997;52.242;8.168;2023-09-12T01:36:51;19.10;99.90
21672;DHT22;10997;52.242;8.168;2023-09-12T01:41:52;19.10;99.90
21672;DHT22;10997;52.242;8.168;2023-09-12T01:46:54;19.10;99.90
21672;DHT22;10997;52.242;8.168;2023-09-12T01:51:58;19.20;99.90
21672;DHT22;10997;52.242;8.168;2023-09-12T01:57:01;19.30;99.90
21672;DHT22;10997;52.242;8.168;2023-09-12T02:02:02;19.30;99.90
21672;DHT22;10997;52.242;8.168;2023-09-12T02:07:03;19.20;99.90
21672;DHT22;10997;52.242;8.168;2023-09-12T02:12:04;19.20;99.90
21672;DHT22;10997;52.242;8.168;2023-09-12T02:17:04;19.10;99.90
21672;DHT22;10997;52.242;8.168;2023-09-12T02:22:05;19.10;99.90
21672;DHT22;10997;52.242;8.168;2023-09-12T02:27:05;19.20;99.90
21672;DHT22;10997;52.242;8.168;2023-09-12T02:32:06;19.10;99.90
21672;DHT22;10997;52.242;8.168;2023-09-12T02:37:06;19.10;99.90
21672;DHT22;10997;52.242;8.168;2023-09-12T02:42:07;19.10;99.90
21672;DHT22;10997;52.242;8.168;2023-09-12T02:47:08;19.00;99.90
21672;DHT22;10997;52.242;8.168;2023-09-12T02:52:08;18.90;99.90
21672;DHT22;10997;52.242;8.168;2023-09-12T02:57:09;18.80;99.90
21672;DHT22;10997;52.242;8.168;2023-09-12T03:02:09;18.80;99.90
21672;DHT22;10997;52.242;8.168;2023-09-12T03:07:10;18.80;99.90
21672;DHT22;10997;52.242;8.168;2023-09-12T03:12:11;18.90;99.90
21672;DHT22;10997;52.242;8.168;2023-09-12T03:17:11;18.90;99.90
21672;DHT22;10997;52.242;8.168;2023-09-12T03:22:12;18.90;99.90
21672;DHT22;10997;52.242;8.168;2023-09-12T03:27:13;18.90;99.90
21672;DHT22;10997;52.242;8.168;2023-09-12T03:32:13;18.80;99.90
21672;DHT22;10997;52.242;8.168;2023-09-12T03:37:14;18.80;99.90
21672;DHT22;10997;52.242;8.168;2023-09-12T03:42:14;18.80;99.90
21672;DHT22;10997;52.242;8.168;2023-09-12T04:01:09;18.80;99.90
21672;DHT22;10997;52.242;8.168;2023-09-12T04:06:10;19.00;99.90
21672;DHT22;10997;52.242;8.168;2023-09-12T04:11:10;18.90;99.90
21672;DHT22;10997;52.242;8.168;2023-09-12T04:16:11;18.60;99.90
21672;DHT22;10997;52.242;8.168;2023-09-12T04:21:12;18.60;99.90
21672;DHT22;10997;52.242;8.168;2023-09-12T04:26:13;18.50;99.90
21672;DHT22;10997;52.242;8.168;2023-09-12T04:31:13;18.30;99.90
21672;DHT22;10997;52.242;8.168;2023-09-12T04:36:14;18.20;99.90
21672;DHT22;10997;52.242;8.168;2023-09-12T04:41:14;18.10;99.90
21672;DHT22;10997;52.242;8.168;2023-09-12T04:46:17;18.00;99.90
21672;DHT22;10997;52.242;8.168;2023-09-12T04:51:17;18.20;99.90
21672;DHT22;10997;52.242;8.168;2023-09-12T04:56:18;18.20;99.90
21672;DHT22;10997;52.242;8.168;2023-09-12T05:01:22;18.20;99.90
21672;DHT22;10997;52.242;8.168;2023-09-12T05:06:23;18.20;99.90
21672;DHT22;10997;52.242;8.168;2023-09-12T05:11:23;18.30;99.90
21672;DHT22;10997;52.242;8.168;2023-09-12T05:16:24;18.20;99.90
21672;DHT22;10997;52.242;8.168;2023-09-12T05:21:25;18.20;99.90
21672;DHT22;10997;52.242;8.168;2023-09-12T05:26:25;18.20;99.90
21672;DHT22;10997;52.242;8.168;2023-09-12T05:31:26;18.20;99.90
21672;DHT22;10997;52.242;8.168;2023-09-12T05:36:27;18.10;99.90
21672;DHT22;10997;52.242;8.168;2023-09-12T05:41:27;18.10;99.90
21672;DHT22;10997;52.242;8.168;2023-09-12T05:46:28;18.10;99.90
21672;DHT22;10997;52.242;8.168;2023-09-12T05:51:29;18.20;99.90
21672;DHT22;10997;52.242;8.168;2023-09-12T05:56:30;18.20;99.90
21672;DHT22;10997;52.242;8.168;2023-09-12T06:01:31;18.10;99.90
21672;DHT22;10997;52.242;8.168;2023-09-12T06:06:31;18.10;99.90
21672;DHT22;10997;52.242;8.168;2023-09-12T06:11:32;18.10;99.90
21672;DHT22;10997;52.242;8.168;2023-09-12T06:16:32;18.10;99.90
21672;DHT22;10997;52.242;8.168;2023-09-12T06:21:33;18.20;99.90
21672;DHT22;10997;52.242;8.168;2023-09-12T06:26:34;18.20;99.90
21672;DHT22;10997;52.242;8.168;2023-09-12T06:31:35;18.20;99.90
21672;DHT22;10997;52.242;8.168;2023-09-12T06:36:36;18.30;99.90
21672;DHT22;10997;52.242;8.168;2023-09-12T06:41:36;18.40;99.90
21672;DHT22;10997;52.242;8.168;2023-09-12T06:46:37;18.40;99.90
21672;DHT22;10997;52.242;8.168;2023-09-12T06:51:38;18.50;99.90
21672;DHT22;10997;52.242;8.168;2023-09-12T06:56:39;18.40;99.90
21672;DHT22;10997;52.242;8.168;2023-09-12T07:01:42;18.20;99.90
21672;DHT22;10997;52.242;8.168;2023-09-12T07:06:43;18.10;99.90
21672;DHT22;10997;52.242;8.168;2023-09-12T07:11:44;18.10;99.90
21672;DHT22;10997;52.242;8.168;2023-09-12T07:16:45;18.10;99.90
21672;DHT22;10997;52.242;8.168;2023-09-12T07:21:45;18.10;99.90
21672;DHT22;10997;52.242;8.168;2023-09-12T07:26:46;18.10;99.90
21672;DHT22;10997;52.242;8.168;2023-09-12T07:31:47;18.10;99.90
21672;DHT22;10997;52.242;8.168;2023-09-12T07:36:48;18.00;99.90
21672;DHT22;10997;52.242;8.168;2023-09-12T07:41:48;18.00;99.90
21672;DHT22;10997;52.242;8.168;2023-09-12T07:46:49;18.10;99.90
21672;DHT22;10997;52.242;8.168;2023-09-12T07:51:50;18.10;99.90
21672;DHT22;10997;52.242;8.168;2023-09-12T07:56:50;18.10;99.90
21672;DHT22;10997;52.242;8.168;2023-09-12T08:01:51;18.10;99.90
21672;DHT22;10997;52.242;8.168;2023-09-12T08:06:52;18.00;99.90
21672;DHT22;10997;52.242;8.168;2023-09-12T08:11:53;18.00;99.90
21672;DHT22;10997;52.242;8.168;2023-09-12T08:16:53;17.90;99.90
21672;DHT22;10997;52.242;8.168;2023-09-12T08:21:54;18.00;99.90
21672;DHT22;10997;52.242;8.168;2023-09-12T08:26:54;18.00;99.90
21672;DHT22;10997;52.242;8.168;2023-09-12T08:31:55;18.00;99.90
21672;DHT22;10997;52.242;8.168;2023-09-12T08:36:55;18.00;99.90
21672;DHT22;10997;52.242;8.168;2023-09-12T08:41:56;18.00;99.90
21672;DHT22;10997;52.242;8.168;2023-09-12T08:46:57;18.00;99.90
21672;DHT22;10997;52.242;8.168;2023-09-12T08:51:57;18.00;99.90
21672;DHT22;10997;52.242;8.168;2023-09-12T08:57:00;18.10;99.90
21672;DHT22;10997;52.242;8.168;2023-09-12T09:02:03;18.20;99.90
21672;DHT22;10997;52.242;8.168;2023-09-12T09:07:06;18.20;99.90
21672;DHT22;10997;52.242;8.168;2023-09-12T09:12:08;18.20;99.90
21672;DHT22;10997;52.242;8.168;2023-09-12T09:17:09;18.30;99.90
21672;DHT22;10997;52.242;8.168;2023-09-12T09:22:11;18.30;99.90
21672;DHT22;10997;52.242;8.168;2023-09-12T09:27:32;18.30;99.90
21672;DHT22;10997;52.242;8.168;2023-09-12T09:32:34;18.30;99.90
21672;DHT22;10997;52.242;8.168;2023-09-12T09:37:35;18.30;99.90
21672;DHT22;10997;52.242;8.168;2023-09-12T09:42:35;18.40;99.90
21672;DHT22;10997;52.242;8.168;2023-09-12T09:47:36;18.50;99.90
21672;DHT22;10997;52.242;8.168;2023-09-12T09:52:36;18.60;99.90
21672;DHT22;10997;52.242;8.168;2023-09-12T09:57:37;18.60;99.90
21672;DHT22;10997;52.242;8.168;2023-09-12T10:02:39;18.60;99.90
21672;DHT22;10997;52.242;8.168;2023-09-12T10:07:42;18.80;99.90
21672;DHT22;10997;52.242;8.168;2023-09-12T10:12:48;19.10;99.90
21672;DHT22;10997;52.242;8.168;2023-09-12T10:17:59;19.40;99.90
21672;DHT22;10997;52.242;8.168;2023-09-12T10:23:08;19.70;99.90
21672;DHT22;10997;52.242;8.168;2023-09-12T10:28:12;19.80;99.90
21672;DHT22;10997;52.242;8.168;2023-09-12T10:33:14;20.00;99.90
21672;DHT22;10997;52.242;8.168;2023-09-12T10:38:16;20.20;99.90
21672;DHT22;10997;52.242;8.168;2023-09-12T10:43:19;20.40;99.90
21672;DHT22;10997;52.242;8.168;2023-09-12T10:48:21;20.70;99.90
21672;DHT22;10997;52.242;8.168;2023-09-12T10:53:23;20.90;99.90
21672;DHT22;10997;52.242;8.168;2023-09-12T10:58:26;21.20;99.90
21672;DHT22;10997;52.242;8.168;2023-09-12T11:08:29;21.50;99.90
21672;DHT22;10997;52.242;8.168;2023-09-12T11:13:38;22.30;99.90
21672;DHT22;10997;52.242;8.168;2023-09-12T11:19:11;22.70;99.90
21672;DHT22;10997;52.242;8.168;2023-09-12T11:24:13;22.80;99.90
21672;DHT22;10997;52.242;8.168;2023-09-12T11:29:14;23.00;99.90
21672;DHT22;10997;52.242;8.168;2023-09-12T11:34:14;23.10;99.90
21672;DHT22;10997;52.242;8.168;2023-09-12T11:39:27;23.20;99.90
21672;DHT22;10997;52.242;8.168;2023-09-12T11:44:28;23.80;99.90
21672;DHT22;10997;52.242;8.168;2023-09-12T11:49:41;24.20;99.90
21672;DHT22;10997;52.242;8.168;2023-09-12T11:54:45;24.60;99.90
21672;DHT22;10997;52.242;8.168;2023-09-12T11:59:46;24.60;99.90
21672;DHT22;10997;52.242;8.168;2023-09-12T12:04:48;24.60;99.90
21672;DHT22;10997;52.242;8.168;2023-09-12T12:09:50;24.00;99.90
21672;DHT22;10997;52.242;8.168;2023-09-12T12:14:51;23.20;99.90
21672;DHT22;10997;52.242;8.168;2023-09-12T12:19:51;22.90;99.90
21672;DHT22;10997;52.242;8.168;2023-09-12T12:24:53;22.70;99.90
21672;DHT22;10997;52.242;8.168;2023-09-12T12:29:53;22.60;99.90
21672;DHT22;10997;52.242;8.168;2023-09-12T12:34:54;22.40;99.90
21672;DHT22;10997;52.242;8.168;2023-09-12T12:39:55;22.30;99.90
21672;DHT22;10997;52.242;8.168;2023-09-12T12:44:56;22.40;99.90
21672;DHT22;10997;52.242;8.168;2023-09-12T12:49:57;22.80;99.90
21672;DHT22;10997;52.242;8.168;2023-09-12T12:55:05;23.60;99.90
21672;DHT22;10997;52.242;8.168;2023-09-12T13:05:30;24.20;99.90
21672;DHT22;10997;52.242;8.168;2023-09-12T13:10:32;23.70;99.90
21672;DHT22;10997;52.242;8.168;2023-09-12T13:15:32;23.40;99.90
21672;DHT22;10997;52.242;8.168;2023-09-12T13:20:33;23.10;99.90
21672;DHT22;10997;52.242;8.168;2023-09-12T13:25:33;23.10;99.90
21672;DHT22;10997;52.242;8.168;2023-09-12T13:30:37;23.40;99.90
21672;DHT22;10997;52.242;8.168;2023-09-12T13:35:38;23.50;99.90
21672;DHT22;10997;52.242;8.168;2023-09-12T13:40:39;23.70;99.90
21672;DHT22;10997;52.242;8.168;2023-09-12T13:45:42;23.60;99.90
21672;DHT22;10997;52.242;8.168;2023-09-12T13:50:43;23.90;99.90
21672;DHT22;10997;52.242;8.168;2023-09-12T13:55:43;23.80;99.90
21672;DHT22;10997;52.242;8.168;2023-09-12T14:00:44;23.80;99.90
21672;DHT22;10997;52.242;8.168;2023-09-12T14:05:45;23.90;99.90
21672;DHT22;10997;52.242;8.168;2023-09-12T14:10:45;23.80;99.90
21672;DHT22;10997;52.242;8.168;2023-09-12T14:15:46;23.80;99.90
21672;DHT22;10997;52.242;8.168;2023-09-12T14:20:47;23.80;99.90
21672;DHT22;10997;52.242;8.168;2023-09-12T14:25:48;23.70;99.90
21672;DHT22;10997;52.242;8.168;2023-09-12T14:30:49;23.80;99.90
21672;DHT22;10997;52.242;8.168;2023-09-12T14:35:50;23.60;99.90
21672;DHT22;10997;52.242;8.168;2023-09-12T14:40:52;23.50;99.90
21672;DHT22;10997;52.242;8.168;2023-09-12T14:45:57;23.70;99.90
21672;DHT22;10997;52.242;8.168;2023-09-12T14:50:58;24.00;99.90
21672;DHT22;10997;52.242;8.168;2023-09-12T14:55:58;23.90;99.90
21672;DHT22;10997;52.242;8.168;2023-09-12T15:00:59;24.20;99.90
21672;DHT22;10997;52.242;8.168;2023-09-12T15:05:59;24.40;99.90
21672;DHT22;10997;52.242;8.168;2023-09-12T15:11:03;24.80;99.90
21672;DHT22;10997;52.242;8.168;2023-09-12T15:16:05;25.10;99.90
21672;DHT22;10997;52.242;8.168;2023-09-12T15:21:06;25.30;99.90
21672;DHT22;10997;52.242;8.168;2023-09-12T15:26:07;25.40;99.90
21672;DHT22;10997;52.242;8.168;2023-09-12T15:31:11;25.20;99.90
21672;DHT22;10997;52.242;8.168;2023-09-12T15:36:12;25.20;99.90
21672;DHT22;10997;52.242;8.168;2023-09-12T15:41:12;24.90;99.90
21672;DHT22;10997;52.242;8.168;2023-09-12T15:46:13;24.60;99.90
21672;DHT22;10997;52.242;8.168;2023-09-12T15:51:14;24.50;99.90
21672;DHT22;10997;52.242;8.168;2023-09-12T15:56:15;24.50;99.90
21672;DHT22;10997;52.242;8.168;2023-09-12T16:01:16;24.60;99.90
21672;DHT22;10997;52.242;8.168;2023-09-12T16:06:16;24.50;99.90
21672;DHT22;10997;52.242;8.168;2023-09-12T16:11:17;24.50;99.90
21672;DHT22;10997;52.242;8.168;2023-09-12T16:16:24;24.20;99.90
21672;DHT22;10997;52.242;8.168;2023-09-12T16:21:25;24.20;99.90
21672;DHT22;10997;52.242;8.168;2023-09-12T16:26:25;24.20;99.90
21672;DHT22;10997;52.242;8.168;2023-09-12T16:31:26;24.10;99.90
21672;DHT22;10997;52.242;8.168;2023-09-12T16:36:26;23.90;99.90
21672;DHT22;10997;52.242;8.168;2023-09-12T16:41:27;23.80;99.90
21672;DHT22;10997;52.242;8.168;2023-09-12T16:46:28;23.70;99.90
21672;DHT22;10997;52.242;8.168;2023-09-12T16:51:29;23.70;99.90
21672;DHT22;10997;52.242;8.168;2023-09-12T16:56:30;23.70;99.90
21672;DHT22;10997;52.242;8.168;2023-09-12T17:01:30;23.60;99.90
21672;DHT22;10997;52.242;8.168;2023-09-12T17:06:31;23.50;99.90
21672;DHT22;10997;52.242;8.168;2023-09-12T17:11:32;23.40;99.90
21672;DHT22;10997;52.242;8.168;2023-09-12T17:16:32;23.40;99.90
21672;DHT22;10997;52.242;8.168;2023-09-12T17:21:35;23.30;99.90
21672;DHT22;10997;52.242;8.168;2023-09-12T17:26:36;23.10;99.90
21672;DHT22;10997;52.242;8.168;2023-09-12T17:31:37;22.90;99.90
21672;DHT22;10997;52.242;8.168;2023-09-12T17:36:38;22.70;99.90
21672;DHT22;10997;52.242;8.168;2023-09-12T17:41:39;22.50;99.90
21672;DHT22;10997;52.242;8.168;2023-09-12T17:46:40;22.30;99.90
21672;DHT22;10997;52.242;8.168;2023-09-12T17:51:40;22.20;99.90
21672;DHT22;10997;52.242;8.168;2023-09-12T17:56:41;22.00;99.90
21672;DHT22;10997;52.242;8.168;2023-09-12T18:01:41;21.90;99.90
21672;DHT22;10997;52.242;8.168;2023-09-12T18:06:42;21.70;99.90
21672;DHT22;10997;52.242;8.168;2023-09-12T18:11:43;21.50;99.90
21672;DHT22;10997;52.242;8.168;2023-09-12T18:16:44;21.40;99.90
21672;DHT22;10997;52.242;8.168;2023-09-12T18:21:44;21.30;99.90
21672;DHT22;10997;52.242;8.168;2023-09-12T18:26:45;21.20;99.90
21672;DHT22;10997;52.242;8.168;2023-09-12T18:31:46;21.00;99.90
21672;DHT22;10997;52.242;8.168;2023-09-12T18:36:47;20.80;99.90
21672;DHT22;10997;52.242;8.168;2023-09-12T18:41:48;20.70;99.90
21672;DHT22;10997;52.242;8.168;2023-09-12T18:46:48;20.60;99.90
21672;DHT22;10997;52.242;8.168;2023-09-12T18:51:49;20.60;99.90
21672;DHT22;10997;52.242;8.168;2023-09-12T18:56:50;20.50;99.90
21672;DHT22;10997;52.242;8.168;2023-09-12T19:01:51;20.40;99.90
21672;DHT22;10997;52.242;8.168;2023-09-12T19:06:52;20.20;99.90
21672;DHT22;10997;52.242;8.168;2023-09-12T19:11:55;20.10;99.90
21672;DHT22;10997;52.242;8.168;2023-09-12T19:16:56;20.00;99.90
21672;DHT22;10997;52.242;8.168;2023-09-12T19:21:56;19.90;99.90
21672;DHT22;10997;52.242;8.168;2023-09-12T19:26:58;19.80;99.90
21672;DHT22;10997;52.242;8.168;2023-09-12T19:31:59;19.80;99.90
21672;DHT22;10997;52.242;8.168;2023-09-12T19:36:59;19.70;99.90
21672;DHT22;10997;52.242;8.168;2023-09-12T19:42:00;19.60;99.90
21672;DHT22;10997;52.242;8.168;2023-09-12T19:47:01;19.40;99.90
21672;DHT22;10997;52.242;8.168;2023-09-12T19:52:01;19.30;99.90
21672;DHT22;10997;52.242;8.168;2023-09-12T19:57:02;19.30;99.90
21672;DHT22;10997;52.242;8.168;2023-09-12T20:02:03;19.40;99.90
21672;DHT22;10997;52.242;8.168;2023-09-12T20:07:04;19.40;99.90
21672;DHT22;10997;52.242;8.168;2023-09-12T20:12:05;19.40;99.90
21672;DHT22;10997;52.242;8.168;2023-09-12T20:17:06;19.40;99.90
21672;DHT22;10997;52.242;8.168;2023-09-12T20:22:06;19.40;99.90
21672;DHT22;10997;52.242;8.168;2023-09-12T20:27:07;19.50;99.90
21672;DHT22;10997;52.242;8.168;2023-09-12T20:32:10;19.40;99.90
21672;DHT22;10997;52.242;8.168;2023-09-12T20:37:12;19.30;99.90
21672;DHT22;10997;52.242;8.168;2023-09-12T20:42:14;19.30;99.90
21672;DHT22;10997;52.242;8.168;2023-09-12T20:47:15;19.30;99.90
21672;DHT22;10997;52.242;8.168;2023-09-12T20:52:15;19.30;99.90
21672;DHT22;10997;52.242;8.168;2023-09-12T20:57:16;19.30;99.90
21672;DHT22;10997;52.242;8.168;2023-09-12T21:02:17;19.30;99.90
21672;DHT22;10997;52.242;8.168;2023-09-12T21:07:17;19.30;99.90
21672;DHT22;10997;52.242;8.168;2023-09-12T21:12:18;19.30;99.90
21672;DHT22;10997;52.242;8.168;2023-09-12T21:17:23;19.30;99.90
21672;DHT22;10997;52.242;8.168;2023-09-12T21:22:23;19.30;99.90
21672;DHT22;10997;52.242;8.168;2023-09-12T21:27:25;19.30;99.90
21672;DHT22;10997;52.242;8.168;2023-09-12T21:32:26;19.30;99.90
21672;DHT22;10997;52.242;8.168;2023-09-12T21:37:27;19.20;99.90
21672;DHT22;10997;52.242;8.168;2023-09-12T21:42:28;19.10;99.90
21672;DHT22;10997;52.242;8.168;2023-09-12T21:47:28;18.90;99.90
21672;DHT22;10997;52.242;8.168;2023-09-12T21:52:29;18.70;99.90
21672;DHT22;10997;52.242;8.168;2023-09-12T21:57:32;18.70;99.90
21672;DHT22;10997;52.242;8.168;2023-09-12T22:02:32;18.70;99.90
21672;DHT22;10997;52.242;8.168;2023-09-12T22:07:33;18.80;99.90
21672;DHT22;10997;52.242;8.168;2023-09-12T22:12:35;18.80;99.90
21672;DHT22;10997;52.242;8.168;2023-09-12T22:17:35;18.90;99.90
21672;DHT22;10997;52.242;8.168;2023-09-12T22:22:36;18.90;99.90
21672;DHT22;10997;52.242;8.168;2023-09-12T22:27:38;19.10;99.90
21672;DHT22;10997;52.242;8.168;2023-09-12T22:32:39;19.10;99.90
21672;DHT22;10997;52.242;8.168;2023-09-12T22:37:39;19.10;99.90
21672;DHT22;10997;52.242;8.168;2023-09-12T22:42:40;19.10;99.90
21672;DHT22;10997;52.242;8.168;2023-09-12T22:47:41;19.20;99.90
21672;DHT22;10997;52.242;8.168;2023-09-12T22:52:41;19.20;99.90
21672;DHT22;10997;52.242;8.168;2023-09-12T22:57:42;19.20;99.90
21672;DHT22;10997;52.242;8.168;2023-09-12T23:02:43;19.20;99.90
21672;DHT22;10997;52.242;8.168;2023-09-12T23:07:44;19.20;99.90
21672;DHT22;10997;52.242;8.168;2023-09-12T23:12:44;19.20;99.90
21672;DHT22;10997;52.242;8.168;2023-09-12T23:17:45;19.10;99.90
21672;DHT22;10997;52.242;8.168;2023-09-12T23:22:46;19.10;99.90
21672;DHT22;10997;52.242;8.168;2023-09-12T23:27:46;19.00;99.90
21672;DHT22;10997;52.242;8.168;2023-09-12T23:32:47;19.00;99.90
21672;DHT22;10997;52.242;8.168;2023-09-12T23:37:47;19.00;99.90
21672;DHT22;10997;52.242;8.168;2023-09-12T23:42:48;19.00;99.90
21672;DHT22;10997;52.242;8.168;2023-09-12T23:47:49;18.80;99.90
21672;DHT22;10997;52.242;8.168;2023-09-12T23:52:49;18.80;99.90
21672;DHT22;10997;52.242;8.168;2023-09-12T23:57:50;18.70;99.90
